sensor_id;sensor_type;location;lat;lon;timestamp;P1;durP1;ratioP1;P2;durP2;ratioP2
19883;SDS011;10104;50.732;10.174;2022-11-20T00:01:31;28.93;;;15.20;;
19883;SDS011;10104;50.732;10.174;2022-11-20T00:03:53;23.93;;;12.53;;
19883;SDS011;10104;50.732;10.174;2022-11-20T00:06:16;25.83;;;12.97;;
19883;SDS011;10104;50.732;10.174;2022-11-20T00:08:39;26.23;;;13.40;;
19883;SDS011;10104;50.732;10.174;2022-11-20T00:11:09;25.73;;;13.13;;
19883;SDS011;10104;50.732;10.174;2022-11-20T00:13:36;27.73;;;14.33;;
19883;SDS011;10104;50.732;10.174;2022-11-20T00:15:58;23.70;;;12.43;;
19883;SDS011;10104;50.732;10.174;2022-11-20T00:18:21;24.43;;;12.13;;
19883;SDS011;10104;50.732;10.174;2022-11-20T00:20:42;25.70;;;12.93;;
19883;SDS011;10104;50.732;10.174;2022-11-20T00:23:04;23.17;;;13.00;;
19883;SDS011;10104;50.732;10.174;2022-11-20T00:25:27;24.97;;;12.70;;
19883;SDS011;10104;50.732;10.174;2022-11-20T00:27:48;25.80;;;12.97;;
19883;SDS011;10104;50.732;10.174;2022-11-20T00:30:10;24.13;;;12.87;;
19883;SDS011;10104;50.732;10.174;2022-11-20T00:32:35;25.87;;;13.00;;
19883;SDS011;10104;50.732;10.174;2022-11-20T00:34:56;26.83;;;14.00;;
19883;SDS011;10104;50.732;10.174;2022-11-20T00:37:18;25.00;;;12.90;;
19883;SDS011;10104;50.732;10.174;2022-11-20T00:39:39;25.87;;;12.67;;
19883;SDS011;10104;50.732;10.174;2022-11-20T00:42:01;23.10;;;12.37;;
19883;SDS011;10104;50.732;10.174;2022-11-20T00:44:22;23.10;;;12.20;;
19883;SDS011;10104;50.732;10.174;2022-11-20T00:46:44;25.00;;;12.60;;
19883;SDS011;10104;50.732;10.174;2022-11-20T00:49:05;26.73;;;13.57;;
19883;SDS011;10104;50.732;10.174;2022-11-20T00:51:27;27.23;;;13.83;;
19883;SDS011;10104;50.732;10.174;2022-11-20T00:53:49;27.13;;;13.13;;
19883;SDS011;10104;50.732;10.174;2022-11-20T00:56:11;27.17;;;13.20;;
19883;SDS011;10104;50.732;10.174;2022-11-20T00:58:37;29.70;;;13.63;;
19883;SDS011;10104;50.732;10.174;2022-11-20T01:01:10;25.27;;;13.03;;
19883;SDS011;10104;50.732;10.174;2022-11-20T01:03:37;25.73;;;13.07;;
19883;SDS011;10104;50.732;10.174;2022-11-20T01:06:04;24.63;;;12.97;;
19883;SDS011;10104;50.732;10.174;2022-11-20T01:08:32;22.80;;;12.43;;
19883;SDS011;10104;50.732;10.174;2022-11-20T01:10:58;22.97;;;12.13;;
19883;SDS011;10104;50.732;10.174;2022-11-20T01:13:20;24.80;;;12.67;;
19883;SDS011;10104;50.732;10.174;2022-11-20T01:16:04;24.87;;;12.33;;
19883;SDS011;10104;50.732;10.174;2022-11-20T01:18:27;25.47;;;13.67;;
19883;SDS011;10104;50.732;10.174;2022-11-20T01:20:48;21.33;;;11.67;;
19883;SDS011;10104;50.732;10.174;2022-11-20T01:23:10;20.90;;;11.20;;
19883;SDS011;10104;50.732;10.174;2022-11-20T01:25:31;21.93;;;10.97;;
19883;SDS011;10104;50.732;10.174;2022-11-20T01:27:53;24.17;;;11.97;;
19883;SDS011;10104;50.732;10.174;2022-11-20T01:30:14;21.33;;;11.87;;
19883;SDS011;10104;50.732;10.174;2022-11-20T01:32:36;22.07;;;11.30;;
19883;SDS011;10104;50.732;10.174;2022-11-20T01:34:57;19.77;;;11.43;;
19883;SDS011;10104;50.732;10.174;2022-11-20T01:37:19;20.50;;;11.10;;
19883;SDS011;10104;50.732;10.174;2022-11-20T01:39:40;23.10;;;12.10;;
19883;SDS011;10104;50.732;10.174;2022-11-20T01:42:02;21.03;;;11.50;;
19883;SDS011;10104;50.732;10.174;2022-11-20T01:44:49;21.03;;;11.10;;
19883;SDS011;10104;50.732;10.174;2022-11-20T01:49:50;22.43;;;11.73;;
19883;SDS011;10104;50.732;10.174;2022-11-20T01:54:53;21.30;;;12.03;;
19883;SDS011;10104;50.732;10.174;2022-11-20T01:57:20;23.23;;;13.03;;
19883;SDS011;10104;50.732;10.174;2022-11-20T01:59:44;22.10;;;12.33;;
19883;SDS011;10104;50.732;10.174;2022-11-20T02:02:15;22.20;;;12.23;;
19883;SDS011;10104;50.732;10.174;2022-11-20T02:04:36;21.20;;;12.27;;
19883;SDS011;10104;50.732;10.174;2022-11-20T02:07:01;22.97;;;11.67;;
19883;SDS011;10104;50.732;10.174;2022-11-20T02:09:26;25.20;;;13.13;;
19883;SDS011;10104;50.732;10.174;2022-11-20T02:11:49;22.03;;;11.67;;
19883;SDS011;10104;50.732;10.174;2022-11-20T02:14:10;21.83;;;12.37;;
19883;SDS011;10104;50.732;10.174;2022-11-20T02:16:33;21.07;;;11.83;;
19883;SDS011;10104;50.732;10.174;2022-11-20T02:18:59;22.13;;;12.07;;
19883;SDS011;10104;50.732;10.174;2022-11-20T02:24:19;22.87;;;12.47;;
19883;SDS011;10104;50.732;10.174;2022-11-20T02:26:47;24.93;;;12.20;;
19883;SDS011;10104;50.732;10.174;2022-11-20T02:29:15;20.77;;;11.57;;
19883;SDS011;10104;50.732;10.174;2022-11-20T02:31:41;18.63;;;10.90;;
19883;SDS011;10104;50.732;10.174;2022-11-20T02:34:04;20.47;;;11.90;;
19883;SDS011;10104;50.732;10.174;2022-11-20T02:36:26;22.50;;;11.67;;
19883;SDS011;10104;50.732;10.174;2022-11-20T02:38:49;21.83;;;11.67;;
19883;SDS011;10104;50.732;10.174;2022-11-20T02:41:11;21.03;;;11.77;;
19883;SDS011;10104;50.732;10.174;2022-11-20T02:43:32;19.77;;;12.30;;
19883;SDS011;10104;50.732;10.174;2022-11-20T02:45:54;22.57;;;12.13;;
19883;SDS011;10104;50.732;10.174;2022-11-20T02:48:15;21.13;;;12.73;;
19883;SDS011;10104;50.732;10.174;2022-11-20T02:50:37;25.97;;;13.93;;
19883;SDS011;10104;50.732;10.174;2022-11-20T02:53:00;23.83;;;13.10;;
19883;SDS011;10104;50.732;10.174;2022-11-20T02:55:21;24.30;;;14.13;;
19883;SDS011;10104;50.732;10.174;2022-11-20T02:57:43;24.17;;;13.77;;
19883;SDS011;10104;50.732;10.174;2022-11-20T03:00:04;20.87;;;12.83;;
19883;SDS011;10104;50.732;10.174;2022-11-20T03:02:31;21.93;;;13.33;;
19883;SDS011;10104;50.732;10.174;2022-11-20T03:04:52;25.07;;;14.17;;
19883;SDS011;10104;50.732;10.174;2022-11-20T03:07:14;22.73;;;13.40;;
19883;SDS011;10104;50.732;10.174;2022-11-20T03:09:35;26.20;;;13.83;;
19883;SDS011;10104;50.732;10.174;2022-11-20T03:11:57;22.67;;;13.50;;
19883;SDS011;10104;50.732;10.174;2022-11-20T03:14:19;22.87;;;14.03;;
19883;SDS011;10104;50.732;10.174;2022-11-20T03:16:41;24.30;;;13.47;;
19883;SDS011;10104;50.732;10.174;2022-11-20T03:19:02;23.07;;;13.43;;
19883;SDS011;10104;50.732;10.174;2022-11-20T03:21:24;25.87;;;14.23;;
19883;SDS011;10104;50.732;10.174;2022-11-20T03:23:46;24.33;;;13.43;;
19883;SDS011;10104;50.732;10.174;2022-11-20T03:26:09;20.57;;;12.57;;
19883;SDS011;10104;50.732;10.174;2022-11-20T03:28:32;21.40;;;12.37;;
19883;SDS011;10104;50.732;10.174;2022-11-20T03:30:54;19.97;;;11.60;;
19883;SDS011;10104;50.732;10.174;2022-11-20T03:33:15;25.00;;;12.10;;
19883;SDS011;10104;50.732;10.174;2022-11-20T03:35:37;20.67;;;11.70;;
19883;SDS011;10104;50.732;10.174;2022-11-20T03:37:58;21.63;;;12.30;;
19883;SDS011;10104;50.732;10.174;2022-11-20T03:40:20;20.10;;;12.03;;
19883;SDS011;10104;50.732;10.174;2022-11-20T03:42:41;21.57;;;12.50;;
19883;SDS011;10104;50.732;10.174;2022-11-20T03:45:08;21.50;;;12.10;;
19883;SDS011;10104;50.732;10.174;2022-11-20T03:47:30;23.87;;;12.93;;
19883;SDS011;10104;50.732;10.174;2022-11-20T03:49:52;22.33;;;12.30;;
19883;SDS011;10104;50.732;10.174;2022-11-20T03:52:13;25.00;;;12.87;;
19883;SDS011;10104;50.732;10.174;2022-11-20T03:54:35;23.37;;;12.77;;
19883;SDS011;10104;50.732;10.174;2022-11-20T03:56:56;25.47;;;13.60;;
19883;SDS011;10104;50.732;10.174;2022-11-20T03:59:18;22.20;;;13.20;;
19883;SDS011;10104;50.732;10.174;2022-11-20T04:01:40;23.47;;;13.77;;
19883;SDS011;10104;50.732;10.174;2022-11-20T04:04:08;24.37;;;13.87;;
19883;SDS011;10104;50.732;10.174;2022-11-20T04:06:32;23.83;;;13.03;;
19883;SDS011;10104;50.732;10.174;2022-11-20T04:08:56;21.93;;;12.67;;
19883;SDS011;10104;50.732;10.174;2022-11-20T04:11:20;20.80;;;12.90;;
19883;SDS011;10104;50.732;10.174;2022-11-20T04:13:45;22.23;;;13.57;;
19883;SDS011;10104;50.732;10.174;2022-11-20T04:16:09;21.73;;;13.67;;
19883;SDS011;10104;50.732;10.174;2022-11-20T04:18:31;23.57;;;13.77;;
19883;SDS011;10104;50.732;10.174;2022-11-20T04:20:53;20.93;;;12.40;;
19883;SDS011;10104;50.732;10.174;2022-11-20T04:23:14;20.93;;;12.93;;
19883;SDS011;10104;50.732;10.174;2022-11-20T04:25:36;22.13;;;13.30;;
19883;SDS011;10104;50.732;10.174;2022-11-20T04:27:57;23.93;;;13.73;;
19883;SDS011;10104;50.732;10.174;2022-11-20T04:30:18;27.33;;;14.80;;
19883;SDS011;10104;50.732;10.174;2022-11-20T04:32:40;24.93;;;13.67;;
19883;SDS011;10104;50.732;10.174;2022-11-20T04:35:01;22.73;;;13.13;;
19883;SDS011;10104;50.732;10.174;2022-11-20T04:37:23;21.87;;;13.47;;
19883;SDS011;10104;50.732;10.174;2022-11-20T04:39:44;26.87;;;14.30;;
19883;SDS011;10104;50.732;10.174;2022-11-20T04:42:07;22.00;;;13.37;;
19883;SDS011;10104;50.732;10.174;2022-11-20T04:44:48;22.80;;;13.27;;
19883;SDS011;10104;50.732;10.174;2022-11-20T04:47:09;23.33;;;13.63;;
19883;SDS011;10104;50.732;10.174;2022-11-20T04:49:31;23.43;;;14.20;;
19883;SDS011;10104;50.732;10.174;2022-11-20T04:51:53;23.90;;;13.17;;
19883;SDS011;10104;50.732;10.174;2022-11-20T04:54:14;22.07;;;12.83;;
19883;SDS011;10104;50.732;10.174;2022-11-20T04:56:37;22.43;;;13.40;;
19883;SDS011;10104;50.732;10.174;2022-11-20T04:59:01;23.53;;;13.20;;
19883;SDS011;10104;50.732;10.174;2022-11-20T05:01:23;22.53;;;13.57;;
19883;SDS011;10104;50.732;10.174;2022-11-20T05:03:46;23.20;;;13.60;;
19883;SDS011;10104;50.732;10.174;2022-11-20T05:06:08;24.73;;;13.87;;
19883;SDS011;10104;50.732;10.174;2022-11-20T05:08:31;23.93;;;13.70;;
19883;SDS011;10104;50.732;10.174;2022-11-20T05:10:53;20.63;;;13.23;;
19883;SDS011;10104;50.732;10.174;2022-11-20T05:13:14;21.77;;;13.87;;
19883;SDS011;10104;50.732;10.174;2022-11-20T05:15:36;22.57;;;13.73;;
19883;SDS011;10104;50.732;10.174;2022-11-20T05:17:57;24.27;;;13.90;;
19883;SDS011;10104;50.732;10.174;2022-11-20T05:20:19;22.40;;;13.80;;
19883;SDS011;10104;50.732;10.174;2022-11-20T05:22:41;24.43;;;14.37;;
19883;SDS011;10104;50.732;10.174;2022-11-20T05:25:03;26.73;;;14.67;;
19883;SDS011;10104;50.732;10.174;2022-11-20T05:27:25;24.50;;;13.40;;
19883;SDS011;10104;50.732;10.174;2022-11-20T05:29:47;24.13;;;14.07;;
19883;SDS011;10104;50.732;10.174;2022-11-20T05:32:08;24.23;;;13.80;;
19883;SDS011;10104;50.732;10.174;2022-11-20T05:34:31;24.10;;;14.63;;
19883;SDS011;10104;50.732;10.174;2022-11-20T05:36:52;25.10;;;14.77;;
19883;SDS011;10104;50.732;10.174;2022-11-20T05:39:14;23.43;;;14.13;;
19883;SDS011;10104;50.732;10.174;2022-11-20T05:41:35;21.80;;;13.33;;
19883;SDS011;10104;50.732;10.174;2022-11-20T05:43:57;24.30;;;14.63;;
19883;SDS011;10104;50.732;10.174;2022-11-20T05:46:20;27.47;;;16.53;;
19883;SDS011;10104;50.732;10.174;2022-11-20T05:48:48;31.23;;;16.93;;
19883;SDS011;10104;50.732;10.174;2022-11-20T05:51:11;31.73;;;19.53;;
19883;SDS011;10104;50.732;10.174;2022-11-20T05:53:35;37.83;;;22.47;;
19883;SDS011;10104;50.732;10.174;2022-11-20T05:55:58;58.33;;;30.63;;
19883;SDS011;10104;50.732;10.174;2022-11-20T05:58:28;55.17;;;29.53;;
19883;SDS011;10104;50.732;10.174;2022-11-20T06:00:50;53.37;;;29.23;;
19883;SDS011;10104;50.732;10.174;2022-11-20T06:03:11;52.87;;;28.93;;
19883;SDS011;10104;50.732;10.174;2022-11-20T06:05:33;54.47;;;29.23;;
19883;SDS011;10104;50.732;10.174;2022-11-20T06:07:54;54.47;;;29.20;;
19883;SDS011;10104;50.732;10.174;2022-11-20T06:10:16;48.37;;;30.00;;
19883;SDS011;10104;50.732;10.174;2022-11-20T06:12:37;46.30;;;25.17;;
19883;SDS011;10104;50.732;10.174;2022-11-20T06:14:59;77.40;;;35.60;;
19883;SDS011;10104;50.732;10.174;2022-11-20T06:17:21;117.70;;;44.47;;
19883;SDS011;10104;50.732;10.174;2022-11-20T06:19:42;74.80;;;34.07;;
19883;SDS011;10104;50.732;10.174;2022-11-20T06:22:04;74.27;;;34.57;;
19883;SDS011;10104;50.732;10.174;2022-11-20T06:24:25;75.77;;;32.97;;
19883;SDS011;10104;50.732;10.174;2022-11-20T06:26:47;60.50;;;28.17;;
19883;SDS011;10104;50.732;10.174;2022-11-20T06:29:08;52.33;;;26.27;;
19883;SDS011;10104;50.732;10.174;2022-11-20T06:31:30;47.23;;;23.80;;
19883;SDS011;10104;50.732;10.174;2022-11-20T06:33:54;35.33;;;21.33;;
19883;SDS011;10104;50.732;10.174;2022-11-20T06:36:16;38.97;;;21.33;;
19883;SDS011;10104;50.732;10.174;2022-11-20T06:38:39;38.83;;;22.17;;
19883;SDS011;10104;50.732;10.174;2022-11-20T06:41:01;39.53;;;20.80;;
19883;SDS011;10104;50.732;10.174;2022-11-20T06:43:24;35.13;;;20.43;;
19883;SDS011;10104;50.732;10.174;2022-11-20T06:45:51;33.63;;;19.83;;
19883;SDS011;10104;50.732;10.174;2022-11-20T06:48:14;34.67;;;19.03;;
19883;SDS011;10104;50.732;10.174;2022-11-20T06:50:38;34.13;;;19.77;;
19883;SDS011;10104;50.732;10.174;2022-11-20T06:53:00;33.57;;;19.23;;
19883;SDS011;10104;50.732;10.174;2022-11-20T06:55:23;35.43;;;19.30;;
19883;SDS011;10104;50.732;10.174;2022-11-20T06:57:45;30.80;;;17.87;;
19883;SDS011;10104;50.732;10.174;2022-11-20T07:00:09;34.17;;;18.53;;
19883;SDS011;10104;50.732;10.174;2022-11-20T07:02:31;34.07;;;19.63;;
19883;SDS011;10104;50.732;10.174;2022-11-20T07:04:52;30.03;;;18.00;;
19883;SDS011;10104;50.732;10.174;2022-11-20T07:07:14;33.60;;;19.10;;
19883;SDS011;10104;50.732;10.174;2022-11-20T07:09:35;35.07;;;18.93;;
19883;SDS011;10104;50.732;10.174;2022-11-20T07:11:57;32.73;;;18.50;;
19883;SDS011;10104;50.732;10.174;2022-11-20T07:14:18;33.67;;;19.90;;
19883;SDS011;10104;50.732;10.174;2022-11-20T07:16:40;30.73;;;19.13;;
19883;SDS011;10104;50.732;10.174;2022-11-20T07:19:01;30.83;;;17.37;;
19883;SDS011;10104;50.732;10.174;2022-11-20T07:21:23;30.13;;;17.50;;
19883;SDS011;10104;50.732;10.174;2022-11-20T07:23:45;29.13;;;17.43;;
19883;SDS011;10104;50.732;10.174;2022-11-20T07:26:08;28.10;;;17.00;;
19883;SDS011;10104;50.732;10.174;2022-11-20T07:28:31;29.20;;;17.27;;
19883;SDS011;10104;50.732;10.174;2022-11-20T07:30:52;29.33;;;17.83;;
19883;SDS011;10104;50.732;10.174;2022-11-20T07:33:14;34.17;;;20.47;;
19883;SDS011;10104;50.732;10.174;2022-11-20T07:35:36;30.20;;;17.60;;
19883;SDS011;10104;50.732;10.174;2022-11-20T07:37:57;35.03;;;19.23;;
19883;SDS011;10104;50.732;10.174;2022-11-20T07:40:19;31.83;;;18.17;;
19883;SDS011;10104;50.732;10.174;2022-11-20T07:42:50;33.03;;;18.30;;
19883;SDS011;10104;50.732;10.174;2022-11-20T07:45:13;28.83;;;18.17;;
19883;SDS011;10104;50.732;10.174;2022-11-20T07:47:35;33.53;;;18.80;;
19883;SDS011;10104;50.732;10.174;2022-11-20T07:49:57;31.77;;;18.50;;
19883;SDS011;10104;50.732;10.174;2022-11-20T07:52:19;30.70;;;18.63;;
19883;SDS011;10104;50.732;10.174;2022-11-20T07:54:40;32.07;;;18.90;;
19883;SDS011;10104;50.732;10.174;2022-11-20T07:57:02;32.47;;;18.70;;
19883;SDS011;10104;50.732;10.174;2022-11-20T07:59:23;36.70;;;19.50;;
19883;SDS011;10104;50.732;10.174;2022-11-20T08:01:45;33.97;;;20.40;;
19883;SDS011;10104;50.732;10.174;2022-11-20T08:04:06;32.07;;;19.90;;
19883;SDS011;10104;50.732;10.174;2022-11-20T08:06:28;36.17;;;20.63;;
19883;SDS011;10104;50.732;10.174;2022-11-20T08:08:50;40.30;;;21.73;;
19883;SDS011;10104;50.732;10.174;2022-11-20T08:11:12;35.23;;;21.83;;
19883;SDS011;10104;50.732;10.174;2022-11-20T08:13:51;41.27;;;22.77;;
19883;SDS011;10104;50.732;10.174;2022-11-20T08:16:31;44.40;;;25.03;;
19883;SDS011;10104;50.732;10.174;2022-11-20T08:18:53;38.67;;;22.50;;
19883;SDS011;10104;50.732;10.174;2022-11-20T08:21:14;32.50;;;19.53;;
19883;SDS011;10104;50.732;10.174;2022-11-20T08:23:36;34.03;;;18.87;;
19883;SDS011;10104;50.732;10.174;2022-11-20T08:25:57;31.93;;;19.13;;
19883;SDS011;10104;50.732;10.174;2022-11-20T08:28:19;33.80;;;19.53;;
19883;SDS011;10104;50.732;10.174;2022-11-20T08:30:42;32.27;;;18.87;;
19883;SDS011;10104;50.732;10.174;2022-11-20T08:33:05;34.33;;;19.27;;
19883;SDS011;10104;50.732;10.174;2022-11-20T08:35:32;35.63;;;20.23;;
19883;SDS011;10104;50.732;10.174;2022-11-20T08:37:54;37.77;;;21.87;;
19883;SDS011;10104;50.732;10.174;2022-11-20T08:40:15;38.10;;;20.43;;
19883;SDS011;10104;50.732;10.174;2022-11-20T08:42:46;37.33;;;20.50;;
19883;SDS011;10104;50.732;10.174;2022-11-20T08:45:11;33.20;;;18.37;;
19883;SDS011;10104;50.732;10.174;2022-11-20T08:47:33;33.67;;;19.53;;
19883;SDS011;10104;50.732;10.174;2022-11-20T08:49:54;34.63;;;20.07;;
19883;SDS011;10104;50.732;10.174;2022-11-20T08:52:16;37.33;;;21.17;;
19883;SDS011;10104;50.732;10.174;2022-11-20T08:54:37;39.03;;;20.50;;
19883;SDS011;10104;50.732;10.174;2022-11-20T08:56:59;35.10;;;19.13;;
19883;SDS011;10104;50.732;10.174;2022-11-20T08:59:20;38.50;;;19.47;;
19883;SDS011;10104;50.732;10.174;2022-11-20T09:02:02;38.57;;;20.17;;
19883;SDS011;10104;50.732;10.174;2022-11-20T09:04:23;36.33;;;19.47;;
19883;SDS011;10104;50.732;10.174;2022-11-20T09:06:45;36.33;;;20.13;;
19883;SDS011;10104;50.732;10.174;2022-11-20T09:09:06;42.43;;;20.97;;
19883;SDS011;10104;50.732;10.174;2022-11-20T09:11:28;39.47;;;21.07;;
19883;SDS011;10104;50.732;10.174;2022-11-20T09:13:49;38.37;;;21.13;;
19883;SDS011;10104;50.732;10.174;2022-11-20T09:16:11;40.77;;;22.50;;
19883;SDS011;10104;50.732;10.174;2022-11-20T09:18:32;50.20;;;25.17;;
19883;SDS011;10104;50.732;10.174;2022-11-20T09:20:57;50.20;;;25.37;;
19883;SDS011;10104;50.732;10.174;2022-11-20T09:23:20;46.03;;;25.67;;
19883;SDS011;10104;50.732;10.174;2022-11-20T09:25:42;42.23;;;23.40;;
19883;SDS011;10104;50.732;10.174;2022-11-20T09:28:04;40.57;;;21.93;;
19883;SDS011;10104;50.732;10.174;2022-11-20T09:30:26;38.93;;;21.50;;
19883;SDS011;10104;50.732;10.174;2022-11-20T09:32:48;41.43;;;22.97;;
19883;SDS011;10104;50.732;10.174;2022-11-20T09:35:10;41.80;;;22.07;;
19883;SDS011;10104;50.732;10.174;2022-11-20T09:37:32;42.00;;;22.67;;
19883;SDS011;10104;50.732;10.174;2022-11-20T09:39:53;45.60;;;23.77;;
19883;SDS011;10104;50.732;10.174;2022-11-20T09:50:38;39.17;;;21.07;;
19883;SDS011;10104;50.732;10.174;2022-11-20T09:55:34;37.80;;;21.30;;
19883;SDS011;10104;50.732;10.174;2022-11-20T09:57:57;41.13;;;23.07;;
19883;SDS011;10104;50.732;10.174;2022-11-20T10:00:20;42.43;;;23.53;;
19883;SDS011;10104;50.732;10.174;2022-11-20T10:02:56;44.53;;;23.70;;
19883;SDS011;10104;50.732;10.174;2022-11-20T10:05:25;56.47;;;28.70;;
19883;SDS011;10104;50.732;10.174;2022-11-20T10:07:53;59.47;;;33.30;;
19883;SDS011;10104;50.732;10.174;2022-11-20T10:19:27;54.77;;;26.87;;
19883;SDS011;10104;50.732;10.174;2022-11-20T10:22:14;52.60;;;27.03;;
19883;SDS011;10104;50.732;10.174;2022-11-20T10:30:02;49.13;;;26.07;;
19883;SDS011;10104;50.732;10.174;2022-11-20T10:32:32;52.00;;;26.90;;
19883;SDS011;10104;50.732;10.174;2022-11-20T10:35:32;46.97;;;24.50;;
19883;SDS011;10104;50.732;10.174;2022-11-20T10:37:57;45.17;;;24.37;;
19883;SDS011;10104;50.732;10.174;2022-11-20T10:43:14;45.40;;;24.53;;
19883;SDS011;10104;50.732;10.174;2022-11-20T10:48:30;50.40;;;28.60;;
19883;SDS011;10104;50.732;10.174;2022-11-20T10:53:29;55.10;;;29.03;;
19883;SDS011;10104;50.732;10.174;2022-11-20T10:56:11;52.10;;;28.47;;
19883;SDS011;10104;50.732;10.174;2022-11-20T11:01:16;48.17;;;25.57;;
19883;SDS011;10104;50.732;10.174;2022-11-20T11:03:39;51.87;;;27.43;;
19883;SDS011;10104;50.732;10.174;2022-11-20T11:06:08;55.60;;;32.60;;
19883;SDS011;10104;50.732;10.174;2022-11-20T11:08:40;57.20;;;31.73;;
19883;SDS011;10104;50.732;10.174;2022-11-20T11:11:18;55.03;;;30.10;;
19883;SDS011;10104;50.732;10.174;2022-11-20T11:13:43;56.13;;;31.67;;
19883;SDS011;10104;50.732;10.174;2022-11-20T11:16:05;56.83;;;31.27;;
19883;SDS011;10104;50.732;10.174;2022-11-20T11:20:53;56.03;;;31.47;;
19883;SDS011;10104;50.732;10.174;2022-11-20T11:23:30;66.53;;;38.80;;
19883;SDS011;10104;50.732;10.174;2022-11-20T11:25:58;62.90;;;34.60;;
19883;SDS011;10104;50.732;10.174;2022-11-20T11:28:21;61.57;;;34.37;;
19883;SDS011;10104;50.732;10.174;2022-11-20T11:30:47;59.73;;;35.23;;
19883;SDS011;10104;50.732;10.174;2022-11-20T11:33:12;60.73;;;32.83;;
19883;SDS011;10104;50.732;10.174;2022-11-20T11:35:48;44.13;;;25.23;;
19883;SDS011;10104;50.732;10.174;2022-11-20T11:38:28;42.27;;;23.90;;
19883;SDS011;10104;50.732;10.174;2022-11-20T11:40:52;46.10;;;24.87;;
19883;SDS011;10104;50.732;10.174;2022-11-20T11:43:22;44.63;;;23.23;;
19883;SDS011;10104;50.732;10.174;2022-11-20T11:46:07;39.83;;;23.13;;
19883;SDS011;10104;50.732;10.174;2022-11-20T11:51:19;40.77;;;23.07;;
19883;SDS011;10104;50.732;10.174;2022-11-20T11:53:41;27.27;;;15.73;;
19883;SDS011;10104;50.732;10.174;2022-11-20T11:56:05;20.37;;;12.60;;
19883;SDS011;10104;50.732;10.174;2022-11-20T12:01:10;19.67;;;12.17;;
19883;SDS011;10104;50.732;10.174;2022-11-20T12:03:38;14.23;;;8.50;;
19883;SDS011;10104;50.732;10.174;2022-11-20T12:06:08;17.43;;;10.37;;
19883;SDS011;10104;50.732;10.174;2022-11-20T12:11:13;16.77;;;9.03;;
19883;SDS011;10104;50.732;10.174;2022-11-20T12:14:09;17.77;;;11.07;;
19883;SDS011;10104;50.732;10.174;2022-11-20T12:16:37;20.20;;;10.40;;
19883;SDS011;10104;50.732;10.174;2022-11-20T12:19:00;15.63;;;10.10;;
19883;SDS011;10104;50.732;10.174;2022-11-20T12:21:26;18.20;;;11.20;;
19883;SDS011;10104;50.732;10.174;2022-11-20T12:24:05;19.97;;;10.90;;
19883;SDS011;10104;50.732;10.174;2022-11-20T12:29:36;15.40;;;10.07;;
19883;SDS011;10104;50.732;10.174;2022-11-20T12:35:18;16.40;;;9.97;;
19883;SDS011;10104;50.732;10.174;2022-11-20T12:44:12;17.20;;;8.47;;
19883;SDS011;10104;50.732;10.174;2022-11-20T12:49:47;14.93;;;8.83;;
19883;SDS011;10104;50.732;10.174;2022-11-20T12:52:24;16.23;;;8.87;;
19883;SDS011;10104;50.732;10.174;2022-11-20T12:57:36;16.37;;;10.00;;
19883;SDS011;10104;50.732;10.174;2022-11-20T13:00:23;18.70;;;10.10;;
19883;SDS011;10104;50.732;10.174;2022-11-20T13:08:13;18.27;;;11.53;;
19883;SDS011;10104;50.732;10.174;2022-11-20T13:10:46;21.87;;;12.80;;
19883;SDS011;10104;50.732;10.174;2022-11-20T13:13:18;16.70;;;11.63;;
19883;SDS011;10104;50.732;10.174;2022-11-20T13:15:51;19.23;;;12.33;;
19883;SDS011;10104;50.732;10.174;2022-11-20T13:18:37;20.03;;;11.80;;
19883;SDS011;10104;50.732;10.174;2022-11-20T13:21:00;18.80;;;12.20;;
19883;SDS011;10104;50.732;10.174;2022-11-20T13:23:23;19.20;;;11.83;;
19883;SDS011;10104;50.732;10.174;2022-11-20T13:25:46;18.40;;;10.57;;
19883;SDS011;10104;50.732;10.174;2022-11-20T13:30:30;21.47;;;12.47;;
19883;SDS011;10104;50.732;10.174;2022-11-20T13:33:08;20.83;;;12.43;;
19883;SDS011;10104;50.732;10.174;2022-11-20T13:35:54;21.87;;;12.40;;
19883;SDS011;10104;50.732;10.174;2022-11-20T13:38:17;21.27;;;12.13;;
19883;SDS011;10104;50.732;10.174;2022-11-20T13:41:00;21.30;;;12.63;;
19883;SDS011;10104;50.732;10.174;2022-11-20T13:43:44;18.40;;;11.63;;
19883;SDS011;10104;50.732;10.174;2022-11-20T13:46:06;21.60;;;12.93;;
19883;SDS011;10104;50.732;10.174;2022-11-20T13:48:33;20.07;;;12.63;;
19883;SDS011;10104;50.732;10.174;2022-11-20T13:59:48;20.83;;;13.43;;
19883;SDS011;10104;50.732;10.174;2022-11-20T14:02:18;21.70;;;13.67;;
19883;SDS011;10104;50.732;10.174;2022-11-20T14:04:43;19.63;;;12.37;;
19883;SDS011;10104;50.732;10.174;2022-11-20T14:07:07;21.33;;;13.37;;
19883;SDS011;10104;50.732;10.174;2022-11-20T14:09:31;29.97;;;18.07;;
19883;SDS011;10104;50.732;10.174;2022-11-20T14:11:55;24.93;;;15.77;;
19883;SDS011;10104;50.732;10.174;2022-11-20T14:14:18;22.73;;;15.80;;
19883;SDS011;10104;50.732;10.174;2022-11-20T14:16:43;26.40;;;16.50;;
19883;SDS011;10104;50.732;10.174;2022-11-20T14:21:42;18.90;;;12.60;;
19883;SDS011;10104;50.732;10.174;2022-11-20T14:26:26;17.67;;;12.13;;
19883;SDS011;10104;50.732;10.174;2022-11-20T14:28:48;21.43;;;13.03;;
19883;SDS011;10104;50.732;10.174;2022-11-20T14:31:16;21.27;;;13.20;;
19883;SDS011;10104;50.732;10.174;2022-11-20T14:33:43;19.67;;;13.03;;
19883;SDS011;10104;50.732;10.174;2022-11-20T14:36:05;28.70;;;16.40;;
19883;SDS011;10104;50.732;10.174;2022-11-20T14:38:27;28.50;;;17.97;;
19883;SDS011;10104;50.732;10.174;2022-11-20T14:40:52;25.53;;;16.80;;
19883;SDS011;10104;50.732;10.174;2022-11-20T14:43:24;34.00;;;21.37;;
19883;SDS011;10104;50.732;10.174;2022-11-20T14:45:49;37.10;;;22.43;;
19883;SDS011;10104;50.732;10.174;2022-11-20T14:48:19;33.43;;;21.03;;
19883;SDS011;10104;50.732;10.174;2022-11-20T14:50:45;26.00;;;15.27;;
19883;SDS011;10104;50.732;10.174;2022-11-20T14:53:06;23.87;;;14.53;;
19883;SDS011;10104;50.732;10.174;2022-11-20T14:55:32;25.43;;;15.90;;
19883;SDS011;10104;50.732;10.174;2022-11-20T14:57:56;25.10;;;15.50;;
19883;SDS011;10104;50.732;10.174;2022-11-20T15:00:20;21.50;;;14.03;;
19883;SDS011;10104;50.732;10.174;2022-11-20T15:02:44;18.17;;;11.63;;
19883;SDS011;10104;50.732;10.174;2022-11-20T15:05:07;20.90;;;12.07;;
19883;SDS011;10104;50.732;10.174;2022-11-20T15:07:30;20.63;;;13.80;;
19883;SDS011;10104;50.732;10.174;2022-11-20T15:10:03;20.57;;;14.13;;
19883;SDS011;10104;50.732;10.174;2022-11-20T15:12:25;33.27;;;21.47;;
19883;SDS011;10104;50.732;10.174;2022-11-20T15:14:47;30.33;;;18.87;;
19883;SDS011;10104;50.732;10.174;2022-11-20T15:17:09;23.23;;;14.50;;
19883;SDS011;10104;50.732;10.174;2022-11-20T15:19:32;23.07;;;14.10;;
19883;SDS011;10104;50.732;10.174;2022-11-20T15:21:57;23.80;;;15.23;;
19883;SDS011;10104;50.732;10.174;2022-11-20T15:24:19;21.67;;;14.43;;
19883;SDS011;10104;50.732;10.174;2022-11-20T15:26:41;24.10;;;14.87;;
19883;SDS011;10104;50.732;10.174;2022-11-20T15:29:03;23.83;;;15.30;;